createdAt,value
2022-11-18T00:00:57.885Z,8.19
2022-11-18T00:03:24.660Z,8.15
2022-11-18T00:05:56.284Z,8.18
2022-11-18T00:08:24.280Z,8.17
2022-11-18T00:10:51.750Z,8.20
2022-11-18T00:13:37.812Z,8.23
2022-11-18T00:16:07.300Z,8.30
2022-11-18T00:18:34.137Z,8.32
2022-11-18T00:21:06.698Z,8.31
2022-11-18T00:23:33.746Z,8.35
2022-11-18T00:26:09.487Z,8.36
2022-11-18T00:28:36.515Z,8.38
2022-11-18T00:31:12.025Z,8.37
2022-11-18T00:33:39.316Z,8.39
2022-11-18T00:36:11.877Z,8.41
2022-11-18T00:38:39.823Z,8.44
2022-11-18T00:41:13.624Z,8.49
2022-11-18T00:43:40.980Z,8.54
2022-11-18T00:46:10.204Z,8.56
2022-11-18T00:48:37.907Z,8.60
2022-11-18T00:51:22.495Z,8.63
2022-11-18T00:53:49.274Z,8.63
2022-11-18T00:56:16.029Z,8.63
2022-11-18T00:58:42.809Z,8.60
2022-11-18T01:01:09.763Z,8.54
2022-11-18T01:03:36.566Z,8.57
2022-11-18T01:06:03.381Z,8.58
2022-11-18T01:08:30.190Z,8.55
2022-11-18T01:11:16.891Z,8.61
2022-11-18T01:13:43.660Z,8.62
2022-11-18T01:16:10.375Z,8.66
2022-11-18T01:18:37.223Z,8.70
2022-11-18T01:21:04.257Z,8.69
2022-11-18T01:23:31.056Z,8.74
2022-11-18T01:26:07.458Z,8.75
2022-11-18T01:28:34.527Z,8.71
2022-11-18T01:31:09.959Z,8.73
2022-11-18T01:33:36.773Z,8.71
2022-11-18T01:36:04.041Z,8.75
2022-11-18T01:38:30.850Z,8.77
2022-11-18T01:40:57.633Z,8.70
2022-11-18T01:43:24.537Z,8.72
2022-11-18T01:45:53.939Z,8.72
2022-11-18T01:48:23.670Z,8.75
2022-11-18T01:51:16.337Z,8.75
2022-11-18T01:53:51.776Z,8.76
2022-11-18T01:56:23.960Z,8.74
2022-11-18T01:58:56.267Z,8.83
2022-11-18T02:01:23.727Z,8.87
2022-11-18T02:03:53.057Z,8.91
2022-11-18T02:06:20.670Z,8.96
2022-11-18T02:08:48.743Z,8.95
2022-11-18T02:11:34.774Z,8.99
2022-11-18T02:14:04.299Z,9.05
2022-11-18T02:16:52.137Z,9.12
2022-11-18T02:19:24.806Z,9.15
2022-11-18T02:22:08.671Z,9.17
2022-11-18T02:25:06.496Z,9.16
2022-11-18T02:28:05.223Z,9.22
2022-11-18T02:30:44.651Z,9.25
2022-11-18T02:33:16.802Z,9.29
2022-11-18T02:35:57.306Z,9.32
2022-11-18T02:38:36.824Z,9.35
2022-11-18T02:41:09.692Z,9.35
2022-11-18T02:43:52.707Z,9.31
2022-11-18T02:46:26.536Z,9.23
2022-11-18T02:48:54.320Z,9.21
2022-11-18T02:51:26.024Z,9.27
2022-11-18T02:53:57.152Z,9.29
2022-11-18T02:56:26.060Z,9.32
2022-11-18T02:58:52.874Z,9.34
2022-11-18T03:01:31.298Z,9.32
2022-11-18T03:03:58.272Z,9.31
2022-11-18T03:06:31.621Z,9.30
2022-11-18T03:09:07.321Z,9.32
2022-11-18T03:11:59.994Z,9.38
2022-11-18T03:14:56.993Z,9.40
2022-11-18T03:17:31.149Z,9.38
2022-11-18T03:20:20.393Z,9.39
2022-11-18T03:22:52.832Z,9.44
2022-11-18T03:25:42.093Z,9.45
2022-11-18T03:28:19.525Z,9.47
2022-11-18T03:30:54.163Z,9.48
2022-11-18T03:33:26.526Z,9.52
2022-11-18T03:35:54.703Z,9.54
2022-11-18T03:38:29.296Z,9.57
2022-11-18T03:41:03.651Z,9.56
2022-11-18T03:43:37.432Z,9.56
2022-11-18T03:46:10.963Z,9.58
2022-11-18T03:48:48.126Z,9.58
2022-11-18T03:51:18.730Z,9.59
2022-11-18T03:53:54.075Z,9.61
2022-11-18T03:56:29.260Z,9.65
2022-11-18T03:59:22.393Z,9.68
2022-11-18T04:01:57.864Z,9.69
2022-11-18T04:04:27.197Z,9.70
2022-11-18T04:07:10.157Z,9.73
2022-11-18T04:10:13.512Z,9.73
2022-11-18T04:12:50.645Z,9.74
2022-11-18T04:15:17.648Z,9.71
2022-11-18T04:17:44.441Z,9.70
2022-11-18T04:20:18.680Z,9.71
2022-11-18T04:22:45.913Z,9.71
2022-11-18T04:25:13.312Z,9.70
2022-11-18T04:27:40.263Z,9.69
2022-11-18T04:30:08.306Z,9.69
2022-11-18T04:32:35.558Z,9.73
2022-11-18T04:35:02.489Z,9.72
2022-11-18T04:37:29.279Z,9.74
2022-11-18T04:39:56.027Z,9.76
2022-11-18T04:42:22.916Z,9.76
2022-11-18T04:44:49.654Z,9.76
2022-11-18T04:47:16.483Z,9.75
2022-11-18T04:49:43.304Z,9.74
2022-11-18T04:52:10.058Z,9.74
2022-11-18T04:54:36.923Z,9.75
2022-11-18T04:57:04.149Z,9.75
2022-11-18T04:59:30.999Z,9.77
2022-11-18T05:01:59.477Z,9.75
2022-11-18T05:04:30.102Z,9.74
2022-11-18T05:06:57.922Z,9.75
2022-11-18T05:09:30.431Z,9.79
2022-11-18T05:12:17.621Z,9.80
2022-11-18T05:14:49.580Z,9.82
2022-11-18T05:17:17.663Z,9.84
2022-11-18T05:19:44.486Z,9.85
2022-11-18T05:22:11.307Z,9.83
2022-11-18T05:24:38.113Z,9.85
2022-11-18T05:27:04.878Z,9.85
2022-11-18T05:29:31.804Z,9.84
2022-11-18T05:31:58.536Z,9.84
2022-11-18T05:34:25.423Z,9.82
2022-11-18T05:36:52.215Z,9.81
2022-11-18T05:39:19.307Z,9.81
2022-11-18T05:42:05.001Z,9.81
2022-11-18T05:44:31.777Z,9.80
2022-11-18T05:46:58.595Z,9.80
2022-11-18T05:49:25.720Z,9.78
2022-11-18T05:51:52.513Z,9.73
2022-11-18T05:54:21.087Z,9.73
2022-11-18T05:56:48.023Z,9.71
2022-11-18T05:59:15.744Z,9.69
2022-11-18T06:01:55.685Z,9.62
2022-11-18T06:04:39.539Z,9.58
2022-11-18T06:07:32.505Z,9.58
2022-11-18T06:10:05.238Z,9.61
2022-11-18T06:12:37.399Z,9.65
2022-11-18T06:15:12.167Z,9.70
2022-11-18T06:18:02.252Z,9.74
2022-11-18T06:20:29.361Z,9.74
2022-11-18T06:22:58.307Z,9.75
2022-11-18T06:25:29.708Z,9.77
2022-11-18T06:27:59.297Z,9.78
2022-11-18T06:30:26.097Z,9.78
2022-11-18T06:32:52.914Z,9.76
2022-11-18T06:35:19.781Z,9.75
2022-11-18T06:37:47.390Z,9.73
2022-11-18T06:40:14.306Z,9.72
2022-11-18T06:42:59.809Z,9.69
2022-11-18T06:45:26.683Z,9.67
2022-11-18T06:47:57.530Z,9.69
2022-11-18T06:50:24.617Z,9.70
2022-11-18T06:52:51.461Z,9.67
2022-11-18T06:55:18.299Z,9.66
2022-11-18T06:57:45.129Z,9.61
2022-11-18T07:00:12.674Z,9.60
2022-11-18T07:02:39.427Z,9.61
2022-11-18T07:05:06.790Z,9.62
2022-11-18T07:07:41.697Z,9.66
2022-11-18T07:10:09.351Z,9.68
2022-11-18T07:12:36.212Z,9.69
2022-11-18T07:15:03.180Z,9.74
2022-11-18T07:17:31.350Z,9.77
2022-11-18T07:19:58.171Z,9.74
2022-11-18T07:22:25.010Z,9.74
2022-11-18T07:24:51.778Z,9.75
2022-11-18T07:27:18.520Z,9.76
2022-11-18T07:29:45.339Z,9.78
2022-11-18T07:32:12.104Z,9.78
2022-11-18T07:34:38.957Z,9.62
2022-11-18T07:37:05.699Z,9.58
2022-11-18T07:39:32.452Z,9.60
2022-11-18T07:41:59.423Z,9.59
2022-11-18T07:44:26.201Z,9.56
2022-11-18T07:46:52.964Z,9.27
2022-11-18T07:49:20.032Z,9.22
2022-11-18T07:51:46.932Z,9.31
2022-11-18T07:54:16.628Z,9.36
2022-11-18T07:56:43.594Z,9.42
2022-11-18T07:59:10.334Z,9.43
2022-11-18T08:01:37.282Z,9.35
2022-11-18T08:04:05.800Z,9.41
2022-11-18T08:06:34.131Z,9.47
2022-11-18T08:09:01.297Z,9.54
2022-11-18T08:11:28.081Z,9.58
2022-11-18T08:13:54.907Z,9.61
2022-11-18T08:16:23.881Z,9.63
2022-11-18T08:18:51.587Z,9.63
2022-11-18T08:21:20.225Z,9.55
2022-11-18T08:23:55.130Z,9.44
2022-11-18T08:26:22.769Z,9.38
2022-11-18T08:28:49.914Z,9.37
2022-11-18T08:31:22.435Z,9.34
2022-11-18T08:33:49.273Z,9.30
2022-11-18T08:36:20.222Z,9.16
2022-11-18T08:38:47.058Z,8.97
2022-11-18T08:41:20.257Z,8.78
2022-11-18T08:43:47.161Z,8.81
2022-11-18T08:46:13.886Z,8.90
2022-11-18T08:48:40.680Z,8.86
2022-11-18T08:51:11.480Z,8.71
2022-11-18T08:53:38.290Z,8.75
2022-11-18T08:56:05.521Z,8.85
2022-11-18T08:58:32.544Z,8.89
2022-11-18T09:01:04.895Z,8.88
2022-11-18T09:03:32.176Z,8.83
2022-11-18T09:06:14.100Z,8.82
2022-11-18T09:08:41.762Z,8.71
2022-11-18T09:11:21.019Z,8.63
2022-11-18T09:14:32.773Z,8.57
2022-11-18T09:16:35.969Z,8.51
2022-11-18T09:19:24.457Z,8.21
2022-11-18T09:21:50.045Z,8.17
2022-11-18T09:24:17.335Z,8.20
2022-11-18T09:26:44.574Z,8.22
2022-11-18T09:29:14.181Z,8.17
2022-11-18T09:31:40.906Z,7.89
2022-11-18T09:34:10.360Z,7.65
2022-11-18T09:36:37.578Z,7.55
2022-11-18T09:39:04.800Z,7.52
2022-11-18T09:41:50.576Z,7.32
2022-11-18T09:44:42.619Z,7.17
2022-11-18T09:47:12.299Z,7.05
2022-11-18T09:49:42.388Z,7.08
2022-11-18T09:52:22.118Z,7.04
2022-11-18T09:54:49.304Z,6.93
2022-11-18T09:57:20.053Z,6.98
2022-11-18T09:59:46.995Z,7.12
2022-11-18T10:02:13.824Z,7.26
2022-11-18T10:04:40.785Z,7.20
2022-11-18T10:07:20.936Z,7.11
2022-11-18T10:09:51.872Z,7.14
2022-11-18T10:12:27.783Z,7.19
2022-11-18T10:15:06.473Z,7.14
2022-11-18T10:17:43.492Z,7.27
2022-11-18T10:20:28.959Z,7.27
2022-11-18T10:23:05.486Z,7.22
2022-11-18T10:25:32.270Z,7.13
2022-11-18T10:28:14.099Z,7.19
2022-11-18T10:30:41.088Z,7.23
2022-11-18T10:33:23.126Z,7.29
2022-11-18T10:35:50.567Z,7.26
2022-11-18T10:38:18.933Z,7.17
2022-11-18T10:41:01.631Z,7.14
2022-11-18T10:43:44.881Z,7.11
2022-11-18T10:46:39.250Z,7.22
2022-11-18T10:49:08.861Z,7.22
2022-11-18T10:51:43.170Z,7.25
2022-11-18T10:54:22.667Z,7.19
2022-11-18T10:57:11.132Z,6.95
2022-11-18T10:59:47.084Z,6.50
2022-11-18T11:02:19.640Z,6.55
2022-11-18T11:04:49.114Z,6.58
2022-11-18T11:07:35.174Z,6.34
2022-11-18T11:10:04.759Z,6.27
2022-11-18T11:12:47.287Z,6.39
2022-11-18T11:15:19.544Z,6.50
2022-11-18T11:18:11.089Z,6.62
2022-11-18T11:20:38.951Z,6.73
2022-11-18T11:23:22.034Z,6.73
2022-11-18T11:29:19.061Z,6.60
2022-11-18T11:32:11.040Z,6.52
2022-11-18T11:34:55.330Z,6.25
2022-11-18T11:37:24.792Z,6.13
2022-11-18T11:39:51.502Z,5.92
2022-11-18T11:42:24.234Z,5.91
2022-11-18T11:45:19.186Z,6.05
2022-11-18T11:48:23.328Z,6.17
2022-11-18T11:51:03.487Z,6.24
2022-11-18T11:53:41.571Z,6.19
2022-11-18T11:56:25.854Z,6.10
2022-11-18T11:59:11.545Z,6.08
2022-11-18T12:01:47.180Z,5.89
2022-11-18T12:04:29.167Z,5.79
2022-11-18T12:06:58.044Z,5.74
2022-11-18T12:09:34.017Z,5.74
2022-11-18T12:12:36.700Z,5.71
2022-11-18T12:15:31.165Z,5.63
2022-11-18T12:18:09.110Z,5.58
2022-11-18T12:20:40.537Z,5.50
2022-11-18T12:23:10.700Z,5.45
2022-11-18T12:26:10.347Z,5.41
2022-11-18T12:28:43.418Z,5.36
2022-11-18T12:31:19.161Z,5.13
2022-11-18T12:33:48.711Z,4.98
2022-11-18T12:36:36.263Z,5.12
2022-11-18T12:39:26.352Z,4.60
2022-11-18T12:42:11.683Z,4.56
2022-11-18T12:44:40.273Z,4.53
2022-11-18T12:47:14.664Z,4.42
2022-11-18T12:49:44.209Z,4.39
2022-11-18T12:52:29.248Z,4.35
2022-11-18T12:55:01.320Z,4.25
2022-11-18T12:57:33.998Z,4.38
2022-11-18T13:00:29.832Z,4.18
2022-11-18T13:02:59.503Z,4.14
2022-11-18T13:05:32.971Z,4.29
2022-11-18T13:08:14.183Z,4.30
2022-11-18T13:11:13.370Z,4.00
2022-11-18T13:13:41.918Z,4.00
2022-11-18T13:16:42.162Z,3.93
2022-11-18T13:19:09.835Z,3.95
2022-11-18T13:21:55.329Z,3.99
2022-11-18T13:24:23.206Z,4.03
2022-11-18T13:26:57.637Z,3.89
2022-11-18T13:29:44.148Z,3.82
2022-11-18T13:32:27.499Z,3.63
2022-11-18T13:34:57.134Z,3.55
2022-11-18T13:37:34.291Z,3.63
2022-11-18T13:40:01.288Z,3.85
2022-11-18T13:42:31.880Z,3.98
2022-11-18T13:45:03.333Z,4.01
2022-11-18T13:47:45.908Z,3.83
2022-11-18T13:50:15.712Z,3.83
2022-11-18T13:53:08.486Z,3.82
2022-11-18T13:55:44.002Z,3.81
2022-11-18T13:58:19.530Z,3.89
2022-11-18T14:00:58.174Z,3.82
2022-11-18T14:03:30.287Z,3.78
2022-11-18T14:05:58.608Z,3.90
2022-11-18T14:08:31.539Z,4.03
2022-11-18T14:10:58.895Z,4.00
2022-11-18T14:13:27.663Z,4.01
2022-11-18T14:15:57.618Z,3.98
2022-11-18T14:18:38.269Z,3.68
2022-11-18T14:21:06.011Z,3.80
2022-11-18T14:23:37.297Z,3.78
2022-11-18T14:26:06.402Z,3.85
2022-11-18T14:28:37.185Z,3.80
2022-11-18T14:31:21.704Z,3.55
2022-11-18T14:34:13.407Z,3.30
2022-11-18T14:36:40.964Z,3.22
2022-11-18T14:39:34.361Z,3.23
2022-11-18T14:42:01.853Z,3.43
2022-11-18T14:44:28.986Z,3.42
2022-11-18T14:47:00.501Z,3.33
2022-11-18T14:49:30.862Z,3.24
2022-11-18T14:51:57.625Z,3.20
2022-11-18T14:54:27.604Z,3.34
2022-11-18T14:57:05.756Z,3.23
2022-11-18T14:59:32.623Z,3.08
2022-11-18T15:02:06.645Z,3.00
2022-11-18T15:04:33.685Z,2.80
2022-11-18T15:07:00.513Z,2.63
2022-11-18T15:09:27.338Z,2.72
2022-11-18T15:11:54.381Z,2.74
2022-11-18T15:14:21.807Z,2.49
2022-11-18T15:16:48.827Z,2.35
2022-11-18T15:19:16.256Z,2.30
2022-11-18T15:21:45.442Z,2.14
2022-11-18T15:24:12.401Z,2.16
2022-11-18T15:26:41.901Z,2.14
2022-11-18T15:29:24.388Z,2.09
2022-11-18T15:31:51.956Z,2.07
2022-11-18T15:34:20.628Z,2.07
2022-11-18T15:36:47.787Z,2.02
2022-11-18T15:39:14.652Z,2.08
2022-11-18T15:41:43.012Z,2.02
2022-11-18T15:44:10.857Z,1.81
2022-11-18T15:46:37.677Z,1.61
2022-11-18T15:49:04.695Z,1.52
2022-11-18T15:51:33.322Z,1.53
2022-11-18T15:54:00.182Z,1.40
2022-11-18T15:56:31.769Z,1.33
2022-11-18T15:59:07.373Z,1.18
2022-11-18T16:01:39.214Z,1.20
2022-11-18T16:04:08.176Z,1.32
2022-11-18T16:06:35.576Z,1.24
2022-11-18T16:09:02.744Z,1.48
2022-11-18T16:11:48.332Z,1.62
2022-11-18T16:14:18.163Z,1.41
2022-11-18T16:16:47.349Z,1.42
2022-11-18T16:19:16.890Z,1.39
2022-11-18T16:21:47.238Z,1.27
2022-11-18T16:24:17.342Z,1.12
2022-11-18T16:26:44.395Z,1.10
2022-11-18T16:29:12.568Z,1.07
2022-11-18T16:31:43.879Z,1.09
2022-11-18T16:34:22.104Z,0.87
2022-11-18T16:36:57.048Z,0.75
2022-11-18T16:39:26.296Z,0.67
2022-11-18T16:42:03.832Z,0.62
2022-11-18T16:44:35.176Z,0.62
2022-11-18T16:47:02.234Z,0.55
2022-11-18T16:49:29.055Z,0.44
2022-11-18T16:51:56.998Z,0.37
2022-11-18T16:54:31.439Z,0.34
2022-11-18T16:56:59.478Z,0.42
2022-11-18T16:59:28.462Z,0.57
2022-11-18T17:01:56.835Z,0.54
2022-11-18T17:04:25.622Z,0.59
2022-11-18T17:06:53.750Z,0.73
2022-11-18T17:09:23.964Z,0.81
2022-11-18T17:11:52.632Z,0.82
2022-11-18T17:14:22.288Z,0.73
2022-11-18T17:16:50.921Z,0.82
2022-11-18T17:19:21.656Z,0.93
2022-11-18T17:21:49.612Z,0.97
2022-11-18T17:24:19.786Z,1.02
2022-11-18T17:26:48.380Z,1.00
2022-11-18T17:29:15.514Z,1.03
2022-11-18T17:31:42.860Z,1.12
2022-11-18T17:34:12.084Z,1.15
2022-11-18T17:36:39.000Z,1.10
2022-11-18T17:39:05.836Z,1.10
2022-11-18T17:41:51.490Z,1.03
2022-11-18T17:44:19.052Z,0.92
2022-11-18T17:46:47.296Z,0.93
2022-11-18T17:49:18.031Z,0.90
2022-11-18T17:51:48.029Z,0.88
2022-11-18T17:54:15.105Z,0.92
2022-11-18T17:56:42.153Z,0.91
2022-11-18T17:59:08.987Z,0.88
2022-11-18T18:01:35.894Z,0.79
2022-11-18T18:04:03.343Z,0.73
2022-11-18T18:06:30.089Z,0.70
2022-11-18T18:08:58.330Z,0.65
2022-11-18T18:11:26.089Z,0.71
2022-11-18T18:14:11.430Z,0.69
2022-11-18T18:16:47.255Z,0.63
2022-11-18T18:19:20.619Z,0.57
2022-11-18T18:21:48.161Z,0.55
2022-11-18T18:24:17.563Z,0.63
2022-11-18T18:26:44.607Z,0.75
2022-11-18T18:29:12.743Z,0.83
2022-11-18T18:31:39.687Z,0.75
2022-11-18T18:34:06.675Z,0.67
2022-11-18T18:36:34.091Z,0.64
2022-11-18T18:39:02.291Z,0.72
2022-11-18T18:41:29.126Z,0.74
2022-11-18T18:43:56.746Z,0.68
2022-11-18T18:46:36.612Z,0.52
2022-11-18T18:49:12.090Z,0.49
2022-11-18T18:51:41.423Z,0.46
2022-11-18T18:54:11.313Z,0.44
2022-11-18T18:56:41.140Z,0.53
2022-11-18T18:59:08.829Z,0.49
2022-11-18T19:01:36.721Z,0.45
2022-11-18T19:04:06.345Z,0.48
2022-11-18T19:09:27.026Z,0.57
2022-11-18T19:12:12.982Z,0.60
2022-11-18T19:14:39.921Z,0.54
2022-11-18T19:17:11.110Z,0.41
2022-11-18T19:19:59.728Z,0.32
2022-11-18T19:22:29.689Z,0.24
2022-11-18T19:24:56.688Z,0.12
2022-11-18T19:27:23.952Z,0.04
2022-11-18T19:29:50.747Z,0.02
2022-11-18T19:32:17.930Z,0.10
2022-11-18T19:34:44.859Z,0.16
2022-11-18T19:37:12.297Z,0.23
2022-11-18T19:39:39.237Z,0.20
2022-11-18T19:42:06.082Z,0.19
2022-11-18T19:44:33.469Z,0.35
2022-11-18T19:47:00.876Z,0.45
2022-11-18T19:49:28.094Z,0.50
2022-11-18T19:51:55.150Z,0.59
2022-11-18T19:54:22.056Z,0.67
2022-11-18T19:56:48.773Z,0.80
2022-11-18T19:59:16.235Z,0.80
2022-11-18T20:01:44.454Z,0.79
2022-11-18T20:04:12.172Z,0.77
2022-11-18T20:06:40.337Z,0.72
2022-11-18T20:09:08.654Z,0.51
2022-11-18T20:11:36.927Z,0.44
2022-11-18T20:14:04.518Z,0.45
2022-11-18T20:16:33.861Z,0.46
2022-11-18T20:19:08.033Z,0.39
2022-11-18T20:21:39.422Z,0.37
2022-11-18T20:24:07.985Z,0.39
2022-11-18T20:26:39.558Z,0.37
2022-11-18T20:29:09.262Z,0.34
2022-11-18T20:31:37.207Z,0.30
2022-11-18T20:34:05.207Z,0.42
2022-11-18T20:36:34.873Z,0.50
2022-11-18T20:39:06.960Z,0.61
2022-11-18T20:41:36.302Z,0.59
2022-11-18T20:44:04.083Z,0.58
2022-11-18T20:46:31.058Z,0.65
2022-11-18T20:48:57.857Z,0.65
2022-11-18T20:51:26.563Z,0.64
2022-11-18T20:53:55.509Z,0.61
2022-11-18T20:56:26.739Z,0.63
2022-11-18T20:58:54.195Z,0.49
2022-11-18T21:01:23.955Z,0.31
2022-11-18T21:03:53.210Z,0.29
2022-11-18T21:06:22.363Z,0.21
2022-11-18T21:08:54.102Z,0.20
2022-11-18T21:11:20.881Z,0.05
2022-11-18T21:14:06.081Z,0.02
2022-11-18T21:16:33.025Z,0.05
2022-11-18T21:19:00.227Z,0.06
2022-11-18T21:21:46.131Z,0.01
2022-11-18T21:24:24.168Z,-0.11
2022-11-18T21:26:54.763Z,-0.13
2022-11-18T21:29:23.513Z,-0.09
2022-11-18T21:31:50.747Z,-0.03
2022-11-18T21:34:18.391Z,-0.12
2022-11-18T21:36:50.380Z,-0.18
2022-11-18T21:39:21.937Z,-0.17
2022-11-18T21:41:54.904Z,-0.06
2022-11-18T21:44:22.425Z,-0.01
2022-11-18T21:46:49.231Z,-0.08
2022-11-18T21:49:16.450Z,-0.09
2022-11-18T21:51:44.085Z,-0.03
2022-11-18T21:54:12.608Z,-0.07
2022-11-18T21:56:39.508Z,-0.11
2022-11-18T21:59:07.789Z,-0.09
2022-11-18T22:01:35.034Z,-0.08
2022-11-18T22:04:04.347Z,-0.09
2022-11-18T22:06:33.625Z,-0.12
2022-11-18T22:09:01.728Z,-0.23
2022-11-18T22:11:28.799Z,-0.18
2022-11-18T22:13:55.934Z,-0.20
2022-11-18T22:16:24.764Z,-0.29
2022-11-18T22:18:58.216Z,-0.33
2022-11-18T22:21:28.083Z,-0.26
2022-11-18T22:24:00.246Z,-0.27
2022-11-18T22:26:27.877Z,-0.21
2022-11-18T22:28:57.044Z,-0.26
2022-11-18T22:31:25.594Z,-0.34
2022-11-18T22:33:53.507Z,-0.35
2022-11-18T22:36:22.629Z,-0.34
2022-11-18T22:38:49.903Z,-0.25
2022-11-18T22:41:39.377Z,-0.22
2022-11-18T22:44:08.423Z,-0.11
2022-11-18T22:46:37.105Z,0.05
2022-11-18T22:49:05.216Z,0.17
2022-11-18T22:51:32.523Z,0.30
2022-11-18T22:54:30.739Z,0.38
2022-11-18T22:56:46.414Z,0.52
2022-11-18T22:59:13.716Z,0.46
2022-11-18T23:01:40.683Z,0.40
2022-11-18T23:04:07.792Z,0.38
2022-11-18T23:06:34.731Z,0.43
2022-11-18T23:09:01.867Z,0.53
2022-11-18T23:11:47.702Z,0.44
2022-11-18T23:14:14.766Z,0.55
2022-11-18T23:16:43.162Z,0.63
2022-11-18T23:19:12.491Z,0.70
2022-11-18T23:21:40.227Z,0.76
2022-11-18T23:24:07.873Z,0.76
2022-11-18T23:26:34.616Z,0.79
2022-11-18T23:29:01.591Z,0.75
2022-11-18T23:31:29.035Z,0.72
2022-11-18T23:33:57.982Z,0.65
2022-11-18T23:36:25.774Z,0.57
2022-11-18T23:38:54.845Z,0.57
2022-11-18T23:41:22.387Z,0.40
2022-11-18T23:43:49.797Z,0.40
2022-11-18T23:46:18.064Z,0.42
2022-11-18T23:48:46.046Z,0.43
2022-11-18T23:51:21.787Z,0.51
2022-11-18T23:53:53.011Z,0.44
2022-11-18T23:56:20.754Z,0.33
2022-11-18T23:58:49.733Z,0.30
